Time;durP1;ratioP1;P1;durP2;ratioP2;P2;SDS_P1;SDS_P2;PMS_P1;PMS_P2;Temp;Humidity;BMP_temperature;BMP_pressure;BME280_temperature;BME280_humidity;BME280_pressure;Samples;Min_cycle;Max_cycle;Signal;HPM_P1;HPM_P2
2021/08/20 00:01:42;;;;;;;6.43;4.90;;;19.40;79.60;;;;;;4943019;28;20498;-43
2021/08/20 00:04:09;;;;;;;7.83;4.20;;;19.40;79.60;;;;;;5036155;28;20454;-43
2021/08/20 00:06:36;;;;;;;3.73;3.40;;;19.40;79.70;;;;;;4976942;28;20542;-43
2021/08/20 00:09:03;;;;;;;5.50;4.10;;;19.40;79.90;;;;;;4945407;28;20847;-43
2021/08/20 00:11:30;;;;;;;5.63;4.17;;;19.40;79.90;;;;;;4953380;28;20467;-43
2021/08/20 00:13:57;;;;;;;4.50;3.63;;;19.40;79.90;;;;;;4941951;28;20459;-43
2021/08/20 00:16:24;;;;;;;4.97;4.10;;;19.40;80.00;;;;;;4980832;28;20471;-43
2021/08/20 00:18:51;;;;;;;4.37;3.57;;;19.40;79.90;;;;;;4946628;28;20554;-43
2021/08/20 00:21:20;;;;;;;5.27;4.63;;;19.40;79.80;;;;;;4940808;28;20496;-43
2021/08/20 00:23:47;;;;;;;4.17;3.77;;;19.40;79.90;;;;;;4961311;28;20458;-43
2021/08/20 00:26:13;;;;;;;9.80;5.20;;;19.40;79.90;;;;;;4941002;28;20877;-43
2021/08/20 00:28:40;;;;;;;5.47;4.63;;;19.40;79.90;;;;;;4947102;28;20492;-43
2021/08/20 00:31:07;;;;;;;4.17;3.77;;;19.40;79.90;;;;;;4941544;28;20469;-43
2021/08/20 00:33:36;;;;;;;4.67;3.77;;;19.40;80.00;;;;;;4943261;28;20563;-43
2021/08/20 00:36:06;;;;;;;4.83;4.03;;;19.30;80.10;;;;;;4944359;28;20497;-43
2021/08/20 00:38:37;;;;;;;5.70;4.20;;;19.40;80.20;;;;;;4946663;28;20459;-44
2021/08/20 00:41:08;;;;;;;6.07;4.10;;;19.40;80.20;;;;;;4941075;28;21002;-43
2021/08/20 00:43:35;;;;;;;6.17;4.13;;;19.40;80.20;;;;;;4948480;28;20491;-43
2021/08/20 00:46:03;;;;;;;4.97;3.50;;;19.30;80.30;;;;;;4945122;28;20494;-43
2021/08/20 00:48:30;;;;;;;4.57;3.90;;;19.40;80.40;;;;;;4956129;28;20475;-43
2021/08/20 00:51:07;;;;;;;4.93;4.40;;;19.40;80.50;;;;;;4952240;28;21699;-43
2021/08/20 00:53:35;;;;;;;4.30;3.90;;;19.40;80.50;;;;;;4949108;28;20561;-43
2021/08/20 00:56:04;;;;;;;5.70;4.70;;;19.30;80.60;;;;;;4944620;28;20476;-43
2021/08/20 00:58:32;;;;;;;5.90;4.80;;;19.30;80.70;;;;;;4939113;28;20525;-43
2021/08/20 01:00:59;;;;;;;5.83;4.30;;;19.30;80.80;;;;;;4944420;28;20521;-43
2021/08/20 01:03:27;;;;;;;5.13;4.13;;;19.30;80.80;;;;;;4976464;28;20463;-44
2021/08/20 01:05:55;;;;;;;6.47;4.50;;;19.30;80.90;;;;;;4942615;28;20455;-44
2021/08/20 01:08:23;;;;;;;6.00;4.50;;;19.30;80.90;;;;;;4945875;28;20584;-43
2021/08/20 01:10:51;;;;;;;4.83;4.30;;;19.30;81.00;;;;;;4946989;28;20468;-43
2021/08/20 01:13:19;;;;;;;4.17;3.83;;;19.30;81.10;;;;;;4949703;28;20514;-44
2021/08/20 01:15:46;;;;;;;6.07;4.57;;;19.30;81.20;;;;;;4941926;28;20468;-43
2021/08/20 01:18:24;;;;;;;4.70;4.27;;;19.30;81.30;;;;;;4949896;28;20473;-43
2021/08/20 01:20:53;;;;;;;6.90;5.13;;;19.30;81.40;;;;;;4970631;28;21004;-43
2021/08/20 01:23:25;;;;;;;4.97;4.27;;;19.30;81.50;;;;;;4952049;28;20524;-44
2021/08/20 01:25:52;;;;;;;5.30;4.80;;;19.30;81.50;;;;;;4957712;28;20479;-44
2021/08/20 01:28:21;;;;;;;4.97;4.30;;;19.30;81.50;;;;;;4950191;28;20821;-44
2021/08/20 01:30:48;;;;;;;5.67;4.50;;;19.30;81.50;;;;;;4949677;28;20456;-43
2021/08/20 01:33:15;;;;;;;5.50;3.93;;;19.30;81.60;;;;;;4942378;28;20464;-43
2021/08/20 01:35:42;;;;;;;5.30;4.53;;;19.30;81.70;;;;;;4940976;28;20458;-43
2021/08/20 01:38:09;;;;;;;4.80;4.40;;;19.30;81.60;;;;;;4954426;28;20459;-43
2021/08/20 01:40:36;;;;;;;5.27;4.77;;;19.30;81.60;;;;;;4948673;28;20948;-43
2021/08/20 01:43:02;;;;;;;5.50;5.00;;;19.20;81.70;;;;;;4948697;28;20471;-43
2021/08/20 01:45:29;;;;;;;5.20;4.70;;;19.20;81.70;;;;;;4950983;28;20888;-43
2021/08/20 01:47:56;;;;;;;4.90;4.30;;;19.20;81.70;;;;;;4989781;28;20463;-43
2021/08/20 01:50:23;;;;;;;8.70;6.00;;;19.20;81.70;;;;;;4940504;28;20812;-43
2021/08/20 01:52:49;;;;;;;11.57;6.10;;;19.20;81.80;;;;;;4948276;28;20468;-43
2021/08/20 01:55:16;;;;;;;6.27;5.00;;;19.20;81.80;;;;;;4979320;28;20542;-43
2021/08/20 01:57:45;;;;;;;7.30;5.87;;;19.20;81.90;;;;;;4962602;28;20467;-43
2021/08/20 02:00:13;;;;;;;7.80;5.53;;;19.20;82.00;;;;;;4945640;28;20460;-43
2021/08/20 02:02:40;;;;;;;6.30;5.20;;;19.20;82.00;;;;;;4942758;28;20491;-43
2021/08/20 02:05:07;;;;;;;7.20;5.37;;;19.20;82.00;;;;;;4981358;28;20463;-43
2021/08/20 02:07:38;;;;;;;5.13;4.30;;;19.20;82.00;;;;;;4962268;28;20813;-43
2021/08/20 02:10:07;;;;;;;5.20;4.70;;;19.20;82.00;;;;;;4945475;28;20474;-43
2021/08/20 02:12:35;;;;;;;5.67;4.90;;;19.20;82.00;;;;;;4942766;28;20468;-43
2021/08/20 02:15:02;;;;;;;5.90;4.30;;;19.20;82.10;;;;;;4943165;28;20470;-43
2021/08/20 02:17:29;;;;;;;4.53;4.03;;;19.20;82.00;;;;;;4941663;28;20459;-43
2021/08/20 02:19:55;;;;;;;5.37;4.03;;;19.20;81.90;;;;;;4946555;28;20467;-44
2021/08/20 02:22:22;;;;;;;7.67;4.53;;;19.20;81.80;;;;;;4953159;28;20925;-43
2021/08/20 02:24:54;;;;;;;7.30;4.80;;;19.20;81.80;;;;;;4945240;28;20470;-45
2021/08/20 02:27:23;;;;;;;5.60;5.10;;;19.20;81.60;;;;;;4945710;28;20495;-45
2021/08/20 02:29:50;;;;;;;4.77;3.83;;;19.20;81.60;;;;;;4942054;28;20960;-45
2021/08/20 02:32:17;;;;;;;4.93;4.30;;;19.20;81.70;;;;;;5039353;28;20472;-45
2021/08/20 02:34:46;;;;;;;7.70;4.37;;;19.10;81.80;;;;;;4943448;28;20467;-45
2021/08/20 02:37:13;;;;;;;6.23;4.73;;;19.10;81.80;;;;;;4970481;28;20856;-45
2021/08/20 02:39:40;;;;;;;6.23;4.63;;;19.10;81.90;;;;;;4941612;28;20471;-45
2021/08/20 02:42:06;;;;;;;6.70;5.07;;;19.10;81.90;;;;;;4969462;28;20491;-45
2021/08/20 02:44:36;;;;;;;5.47;4.93;;;19.00;82.00;;;;;;4956716;28;20797;-45
2021/08/20 02:47:04;;;;;;;6.20;5.20;;;19.00;82.00;;;;;;4945258;28;20455;-45
2021/08/20 02:49:31;;;;;;;6.77;5.37;;;19.00;82.10;;;;;;4941851;28;20828;-45
2021/08/20 02:51:58;;;;;;;8.47;4.80;;;19.00;82.10;;;;;;4948137;28;20844;-46
2021/08/20 02:54:25;;;;;;;7.13;4.20;;;19.00;82.10;;;;;;4943066;28;20826;-46
2021/08/20 02:56:51;;;;;;;6.23;5.03;;;18.90;82.20;;;;;;4947723;28;20729;-46
2021/08/20 02:59:18;;;;;;;5.10;4.60;;;18.90;82.20;;;;;;4949089;28;20514;-46
2021/08/20 03:01:48;;;;;;;5.90;4.93;;;18.90;82.10;;;;;;4947003;28;20495;-45
2021/08/20 03:04:16;;;;;;;6.10;5.20;;;18.90;82.20;;;;;;4943392;28;20459;-45
2021/08/20 03:06:46;;;;;;;7.50;5.83;;;18.90;82.20;;;;;;4944956;28;20562;-45
2021/08/20 03:09:12;;;;;;;5.87;5.27;;;18.90;82.20;;;;;;4972868;28;20482;-45
2021/08/20 03:11:39;;;;;;;7.30;5.67;;;18.80;82.20;;;;;;4940111;28;20467;-45
2021/08/20 03:14:06;;;;;;;5.00;4.50;;;18.80;82.20;;;;;;5036400;28;20471;-45
2021/08/20 03:16:33;;;;;;;5.13;4.50;;;18.80;82.20;;;;;;4938801;28;20472;-45
2021/08/20 03:19:00;;;;;;;6.27;5.47;;;18.80;82.20;;;;;;4952270;28;20841;-45
2021/08/20 03:21:27;;;;;;;6.33;4.57;;;18.70;82.30;;;;;;4937811;28;21229;-45
2021/08/20 03:23:54;;;;;;;6.60;5.17;;;18.70;82.30;;;;;;4975174;28;20490;-45
2021/08/20 03:26:22;;;;;;;5.40;4.87;;;18.70;82.40;;;;;;4942280;28;20475;-45
2021/08/20 03:28:50;;;;;;;7.90;5.20;;;18.60;82.50;;;;;;5042447;28;20868;-45
2021/08/20 03:31:18;;;;;;;4.93;4.43;;;18.60;82.60;;;;;;4969726;28;20986;-45
2021/08/20 03:33:44;;;;;;;5.87;4.90;;;18.60;82.60;;;;;;4930759;28;20466;-42
2021/08/20 03:36:11;;;;;;;6.53;4.57;;;18.60;82.60;;;;;;4941489;28;20845;-42
2021/08/20 03:38:38;;;;;;;6.60;5.40;;;18.60;82.70;;;;;;4943349;28;20999;-42
2021/08/20 03:41:05;;;;;;;7.17;5.57;;;18.60;82.70;;;;;;4938511;28;20517;-42
2021/08/20 03:43:32;;;;;;;6.43;5.30;;;18.50;82.70;;;;;;4939855;28;20523;-42
2021/08/20 03:45:59;;;;;;;7.33;5.20;;;18.50;82.80;;;;;;4952408;28;20467;-42
2021/08/20 03:48:25;;;;;;;5.40;4.90;;;18.50;82.70;;;;;;4952154;28;20900;-42
2021/08/20 03:50:52;;;;;;;5.87;5.37;;;18.50;82.70;;;;;;4938599;28;20843;-42
2021/08/20 03:53:19;;;;;;;5.13;4.10;;;18.40;82.80;;;;;;4942408;28;20466;-42
2021/08/20 03:55:45;;;;;;;6.33;5.60;;;18.40;82.80;;;;;;4936447;28;20478;-42
2021/08/20 03:58:13;;;;;;;8.30;5.87;;;18.40;82.70;;;;;;4943101;28;20917;-42
2021/08/20 04:00:40;;;;;;;7.27;4.93;;;18.30;82.70;;;;;;5040971;28;20463;-42
2021/08/20 04:03:07;;;;;;;5.83;4.83;;;18.30;82.70;;;;;;4935776;28;20737;-42
2021/08/20 04:05:34;;;;;;;6.97;5.90;;;18.30;82.80;;;;;;4979715;28;20455;-42
2021/08/20 04:08:01;;;;;;;6.30;5.53;;;18.20;82.70;;;;;;4939845;28;20460;-42
2021/08/20 04:10:33;;;;;;;6.27;5.20;;;18.20;82.60;;;;;;4949480;28;20474;-43
2021/08/20 04:13:14;;;;;;;5.20;4.30;;;18.20;82.50;;;;;;4959465;28;20556;-44
2021/08/20 04:15:41;;;;;;;8.30;6.40;;;18.10;82.50;;;;;;4952751;28;20830;-44
2021/08/20 04:18:08;;;;;;;5.83;5.00;;;18.10;82.40;;;;;;4965505;28;21071;-45
2021/08/20 04:20:35;;;;;;;7.20;5.20;;;18.00;82.40;;;;;;4951672;28;20959;-45
2021/08/20 04:23:02;;;;;;;6.23;5.00;;;18.00;82.40;;;;;;4942091;28;20748;-45
2021/08/20 04:25:29;;;;;;;8.63;5.23;;;17.90;82.40;;;;;;4941875;28;20490;-44
2021/08/20 04:27:55;;;;;;;5.47;4.93;;;17.90;82.40;;;;;;4980069;28;20486;-44
2021/08/20 04:30:23;;;;;;;7.93;5.40;;;17.80;82.40;;;;;;4949106;28;21192;-44
2021/08/20 04:32:50;;;;;;;5.27;4.77;;;17.80;82.30;;;;;;4940044;28;20543;-44
2021/08/20 04:35:17;;;;;;;6.33;5.17;;;17.80;82.10;;;;;;4943627;28;20470;-44
2021/08/20 04:37:44;;;;;;;6.20;5.60;;;17.80;82.10;;;;;;4976311;28;20486;-44
2021/08/20 04:40:11;;;;;;;5.80;5.20;;;17.80;82.10;;;;;;4939882;28;20463;-44
2021/08/20 04:42:38;;;;;;;7.17;5.53;;;17.70;82.30;;;;;;4947333;28;20483;-44
2021/08/20 04:45:06;;;;;;;6.40;5.17;;;17.70;82.40;;;;;;5041247;28;20467;-45
2021/08/20 04:47:32;;;;;;;6.53;4.70;;;17.70;82.30;;;;;;4939943;28;20459;-45
2021/08/20 04:49:59;;;;;;;6.13;5.33;;;17.70;82.30;;;;;;4946519;28;20462;-45
2021/08/20 04:52:26;;;;;;;6.80;5.67;;;17.70;82.40;;;;;;4955465;28;20464;-45
2021/08/20 04:54:53;;;;;;;7.30;5.80;;;17.60;82.50;;;;;;4950137;28;20468;-44
2021/08/20 04:57:19;;;;;;;5.77;4.80;;;17.60;82.50;;;;;;4944918;28;20475;-44
2021/08/20 04:59:46;;;;;;;5.77;5.17;;;17.60;82.50;;;;;;4947181;28;20460;-44
2021/08/20 05:02:13;;;;;;;6.13;5.53;;;17.60;82.50;;;;;;4951662;28;21019;-44
2021/08/20 05:04:40;;;;;;;9.70;5.00;;;17.60;82.60;;;;;;4945404;28;20463;-44
2021/08/20 05:07:07;;;;;;;5.80;5.30;;;17.60;82.70;;;;;;4946066;28;21083;-44
2021/08/20 05:09:34;;;;;;;9.67;5.27;;;17.50;82.80;;;;;;4939589;28;20462;-44
2021/08/20 05:12:01;;;;;;;6.53;5.27;;;17.50;82.80;;;;;;4939683;28;20551;-44
2021/08/20 05:14:29;;;;;;;6.10;5.30;;;17.50;82.90;;;;;;4977310;28;20724;-44
2021/08/20 05:16:56;;;;;;;6.20;5.33;;;17.60;83.00;;;;;;4940521;28;20459;-44
2021/08/20 05:19:22;;;;;;;6.53;5.63;;;17.60;83.00;;;;;;4961043;28;20482;-45
2021/08/20 05:21:51;;;;;;;5.20;4.70;;;17.70;83.00;;;;;;4958551;28;20465;-45
2021/08/20 05:24:18;;;;;;;8.30;5.23;;;17.70;83.00;;;;;;4943276;28;20543;-45
2021/08/20 05:26:45;;;;;;;7.23;5.70;;;17.70;83.00;;;;;;4948163;28;20478;-44
2021/08/20 05:29:12;;;;;;;6.33;5.23;;;17.70;83.00;;;;;;4965232;28;20459;-44
2021/08/20 05:31:39;;;;;;;6.23;5.23;;;17.70;83.00;;;;;;4952400;28;20465;-44
2021/08/20 05:34:06;;;;;;;6.30;5.70;;;17.70;83.00;;;;;;4954238;28;20929;-44
2021/08/20 05:36:32;;;;;;;6.70;5.80;;;17.70;82.90;;;;;;4946290;28;20494;-44
2021/08/20 05:38:59;;;;;;;8.30;6.00;;;17.70;82.90;;;;;;4948064;28;20809;-44
2021/08/20 05:41:26;;;;;;;7.20;6.50;;;17.80;82.70;;;;;;4977302;28;20607;-44
2021/08/20 05:43:53;;;;;;;9.30;5.97;;;17.80;82.70;;;;;;4944925;28;21020;-44
2021/08/20 05:46:19;;;;;;;6.20;4.83;;;17.80;82.60;;;;;;4943194;28;20464;-44
2021/08/20 05:48:46;;;;;;;7.73;5.10;;;17.80;82.60;;;;;;4941192;28;20885;-44
2021/08/20 05:51:13;;;;;;;8.23;5.70;;;17.90;82.50;;;;;;4943473;28;20468;-44
2021/08/20 05:53:41;;;;;;;5.83;5.23;;;17.90;82.40;;;;;;4945650;28;21086;-44
2021/08/20 05:56:08;;;;;;;5.80;4.90;;;17.90;82.50;;;;;;4944711;28;20506;-44
2021/08/20 05:58:35;;;;;;;6.00;5.40;;;18.00;82.30;;;;;;4940811;28;20495;-44
2021/08/20 06:01:02;;;;;;;5.70;5.20;;;18.00;82.30;;;;;;4963233;28;20456;-44
2021/08/20 06:03:28;;;;;;;7.10;5.17;;;18.10;81.70;;;;;;4973365;28;20568;-44
2021/08/20 06:05:56;;;;;;;6.43;5.50;;;18.10;81.80;;;;;;4943228;28;20464;-44
2021/08/20 06:08:25;;;;;;;7.03;5.27;;;18.10;81.80;;;;;;4949118;28;20552;-45
2021/08/20 06:10:52;;;;;;;6.63;5.43;;;18.20;81.90;;;;;;4950377;28;20774;-45
2021/08/20 06:13:19;;;;;;;5.30;4.80;;;18.20;81.60;;;;;;4944404;28;21019;-45
2021/08/20 06:15:46;;;;;;;5.67;5.03;;;18.30;81.00;;;;;;4950705;28;20499;-45
2021/08/20 06:18:13;;;;;;;4.47;4.07;;;18.40;80.30;;;;;;4940224;28;20491;-45
2021/08/20 06:20:39;;;;;;;4.17;3.77;;;18.40;79.60;;;;;;4974881;28;20943;-45
2021/08/20 06:23:07;;;;;;;6.63;4.93;;;18.50;79.30;;;;;;4947730;28;20487;-45
2021/08/20 06:25:34;;;;;;;4.33;3.90;;;18.50;78.80;;;;;;4943563;28;20459;-45
2021/08/20 06:28:00;;;;;;;4.93;3.70;;;18.60;78.60;;;;;;4942712;28;20824;-45
2021/08/20 06:30:27;;;;;;;6.93;4.30;;;18.60;78.40;;;;;;4939869;28;20459;-45
2021/08/20 06:32:54;;;;;;;4.40;3.30;;;18.70;78.40;;;;;;4939113;28;20463;-45
2021/08/20 06:35:23;;;;;;;3.73;3.37;;;18.80;77.70;;;;;;4946217;28;20505;-45
2021/08/20 06:37:50;;;;;;;5.20;3.10;;;18.80;77.10;;;;;;4949869;28;20980;-45
2021/08/20 06:40:17;;;;;;;4.90;3.40;;;18.80;76.30;;;;;;4943998;28;20490;-45
2021/08/20 06:42:46;;;;;;;4.80;3.37;;;18.90;76.50;;;;;;4977066;28;20494;-45
2021/08/20 06:45:12;;;;;;;5.00;4.03;;;19.00;75.70;;;;;;4951344;28;20876;-45
2021/08/20 06:47:39;;;;;;;3.53;2.87;;;19.00;75.80;;;;;;4954691;28;20465;-45
2021/08/20 06:50:06;;;;;;;4.23;3.47;;;19.10;75.40;;;;;;4953414;28;20463;-45
2021/08/20 06:52:33;;;;;;;3.60;3.30;;;19.20;74.90;;;;;;4966156;28;20455;-45
2021/08/20 06:55:00;;;;;;;3.53;3.23;;;19.30;74.40;;;;;;4978143;28;20463;-47
2021/08/20 06:57:28;;;;;;;3.20;2.90;;;19.40;73.60;;;;;;4946168;28;20459;-45
2021/08/20 06:59:55;;;;;;;3.53;2.90;;;19.50;73.30;;;;;;4951867;28;20580;-45
2021/08/20 07:02:21;;;;;;;4.63;3.10;;;19.60;72.90;;;;;;4940136;28;20804;-45
2021/08/20 07:04:50;;;;;;;6.40;3.37;;;19.70;72.20;;;;;;4946681;28;20740;-45
2021/08/20 07:07:17;;;;;;;5.33;3.07;;;19.70;72.10;;;;;;4947750;28;20456;-45
2021/08/20 07:09:44;;;;;;;3.43;3.13;;;19.80;71.90;;;;;;4971904;28;20936;-45
2021/08/20 07:12:11;;;;;;;3.70;3.30;;;19.80;72.00;;;;;;4944445;28;20452;-45
2021/08/20 07:14:38;;;;;;;3.43;3.13;;;19.80;71.60;;;;;;4946055;28;20818;-45
2021/08/20 07:17:04;;;;;;;3.30;3.00;;;19.90;71.50;;;;;;4944219;28;20456;-45
2021/08/20 07:19:32;;;;;;;5.67;2.90;;;19.90;71.60;;;;;;4939641;28;20465;-45
2021/08/20 07:21:59;;;;;;;4.33;3.20;;;19.90;70.80;;;;;;4953700;28;20490;-45
2021/08/20 07:24:25;;;;;;;3.10;2.60;;;19.90;71.00;;;;;;4942271;28;20483;-45
2021/08/20 07:26:52;;;;;;;3.80;3.33;;;19.90;71.10;;;;;;4939865;28;20478;-45
2021/08/20 07:29:21;;;;;;;3.97;3.20;;;19.90;71.30;;;;;;4953297;28;20792;-45
2021/08/20 07:31:48;;;;;;;4.10;3.70;;;19.90;71.30;;;;;;4940426;28;20579;-45
2021/08/20 07:34:15;;;;;;;3.93;3.50;;;20.00;71.40;;;;;;4940771;28;20510;-45
2021/08/20 07:36:42;;;;;;;4.70;3.50;;;20.00;71.20;;;;;;4950904;28;20469;-45
2021/08/20 07:39:08;;;;;;;4.23;3.20;;;20.10;71.30;;;;;;4972731;28;20467;-45
2021/08/20 07:41:35;;;;;;;3.90;3.43;;;20.20;70.70;;;;;;4958299;28;20452;-45
2021/08/20 07:44:02;;;;;;;3.40;3.10;;;20.40;70.40;;;;;;4946207;28;20867;-45
2021/08/20 07:46:28;;;;;;;3.37;3.07;;;20.50;70.10;;;;;;4953033;28;20453;-45
2021/08/20 07:48:55;;;;;;;3.97;3.50;;;20.60;69.70;;;;;;4942474;28;20444;-45
2021/08/20 07:51:22;;;;;;;4.33;3.10;;;20.80;69.40;;;;;;4953526;28;20520;-45
2021/08/20 07:53:49;;;;;;;6.60;3.63;;;20.90;69.00;;;;;;4955261;28;20447;-45
2021/08/20 07:56:16;;;;;;;3.30;3.00;;;21.10;68.50;;;;;;4942685;28;20444;-45
2021/08/20 07:58:44;;;;;;;3.67;3.10;;;21.30;68.10;;;;;;4949063;28;20447;-45
2021/08/20 08:01:11;;;;;;;3.80;2.77;;;21.50;67.50;;;;;;4946912;28;20472;-45
2021/08/20 08:03:41;;;;;;;3.33;3.03;;;21.60;66.90;;;;;;4946390;28;20526;-45
2021/08/20 08:06:12;;;;;;;4.43;3.60;;;21.70;66.60;;;;;;4954082;28;20509;-45
2021/08/20 08:08:40;;;;;;;4.20;2.80;;;21.80;66.60;;;;;;4984814;28;20534;-45
2021/08/20 08:11:07;;;;;;;3.30;2.93;;;21.90;66.50;;;;;;4950388;28;20537;-45
2021/08/20 08:13:34;;;;;;;7.10;4.23;;;22.10;66.50;;;;;;4950375;28;20486;-45
2021/08/20 08:16:02;;;;;;;4.93;3.43;;;22.30;65.50;;;;;;4945621;28;20471;-45
2021/08/20 08:18:29;;;;;;;3.60;2.80;;;22.40;64.80;;;;;;5040816;28;20444;-45
2021/08/20 08:20:55;;;;;;;3.67;3.00;;;22.50;63.70;;;;;;4949693;28;20486;-45
2021/08/20 08:23:23;;;;;;;2.40;2.20;;;22.50;63.30;;;;;;4951509;28;20490;-45
2021/08/20 08:25:49;;;;;;;3.53;3.23;;;22.50;63.30;;;;;;4959460;28;20483;-45
2021/08/20 08:28:16;;;;;;;2.97;2.70;;;22.50;63.00;;;;;;5042666;28;20553;-45
2021/08/20 08:30:43;;;;;;;6.60;2.70;;;22.60;63.10;;;;;;4954476;28;20479;-45
2021/08/20 08:33:10;;;;;;;3.23;2.80;;;22.70;62.80;;;;;;4947518;28;20486;-45
2021/08/20 08:35:55;;;;;;;4.37;3.60;;;22.80;62.90;;;;;;4947850;28;20548;-45
2021/08/20 08:38:22;;;;;;;4.10;2.63;;;23.00;62.00;;;;;;4942790;28;20464;-45
2021/08/20 08:40:49;;;;;;;2.90;2.60;;;23.10;61.30;;;;;;4944232;28;20695;-45
2021/08/20 08:43:16;;;;;;;2.80;2.60;;;23.30;61.20;;;;;;4955246;28;20486;-45
2021/08/20 08:45:44;;;;;;;3.30;3.00;;;23.50;60.70;;;;;;4947446;28;20450;-45
2021/08/20 08:48:13;;;;;;;5.83;2.73;;;23.70;59.90;;;;;;4961927;28;20974;-45
2021/08/20 08:50:43;;;;;;;2.87;2.57;;;23.90;60.30;;;;;;4954209;28;20474;-45
2021/08/20 08:53:11;;;;;;;3.20;2.90;;;24.00;59.70;;;;;;4976121;28;20448;-45
2021/08/20 08:55:55;;;;;;;3.53;2.67;;;24.30;59.50;;;;;;4943444;28;20446;-45
2021/08/20 08:58:22;;;;;;;4.13;2.77;;;24.60;58.60;;;;;;4942872;28;20447;-45
2021/08/20 09:00:49;;;;;;;3.13;2.70;;;24.80;57.40;;;;;;4970778;28;20465;-45
2021/08/20 09:03:28;;;;;;;3.07;2.40;;;25.00;56.50;;;;;;4942097;28;20553;-45
2021/08/20 09:05:57;;;;;;;2.70;2.23;;;25.20;56.40;;;;;;4942115;28;20498;-45
2021/08/20 09:08:24;;;;;;;2.73;2.53;;;25.40;55.60;;;;;;4949514;28;20440;-45
2021/08/20 09:11:01;;;;;;;5.30;2.47;;;25.60;54.70;;;;;;4944781;28;20465;-46
2021/08/20 09:13:37;;;;;;;3.10;2.83;;;25.90;54.70;;;;;;4943040;28;20438;-45
2021/08/20 09:16:12;;;;;;;4.00;3.30;;;26.20;54.20;;;;;;4953551;28;20458;-45
2021/08/20 09:18:40;;;;;;;4.53;3.13;;;26.50;52.70;;;;;;4944334;28;20552;-45
2021/08/20 09:21:07;;;;;;;4.60;3.40;;;26.70;51.50;;;;;;4944958;28;20811;-45
2021/08/20 09:23:35;;;;;;;3.70;2.87;;;26.90;51.60;;;;;;4946294;28;20500;-45
2021/08/20 09:26:02;;;;;;;2.60;2.40;;;27.10;51.10;;;;;;5038830;28;20965;-46
2021/08/20 09:28:30;;;;;;;2.90;2.63;;;27.30;50.90;;;;;;4971503;28;20536;-47
2021/08/20 09:30:57;;;;;;;3.33;2.50;;;27.40;50.70;;;;;;4949794;28;20466;-46
2021/08/20 09:33:33;;;;;;;3.70;3.40;;;27.70;50.00;;;;;;4942963;28;20211;-47
2021/08/20 09:36:07;;;;;;;2.57;2.27;;;27.90;49.30;;;;;;4972914;28;20493;-45
2021/08/20 09:38:37;;;;;;;2.60;2.40;;;28.10;49.30;;;;;;4972809;28;20447;-44
2021/08/20 09:41:08;;;;;;;3.13;2.80;;;28.30;49.10;;;;;;4942312;28;20443;-45
2021/08/20 09:43:40;;;;;;;2.53;2.33;;;28.50;48.70;;;;;;4945885;28;20490;-44
2021/08/20 09:46:12;;;;;;;3.40;2.93;;;28.60;48.40;;;;;;4952683;28;20212;-45
2021/08/20 09:48:52;;;;;;;3.13;2.83;;;28.80;47.90;;;;;;4951209;28;20203;-44
2021/08/20 09:51:35;;;;;;;5.23;2.80;;;29.20;47.50;;;;;;4947600;28;20914;-44
2021/08/20 09:54:11;;;;;;;2.60;2.40;;;29.50;46.90;;;;;;4936839;28;20207;-44
2021/08/20 09:56:56;;;;;;;2.85;2.65;;;29.80;46.30;;;;;;5025627;28;20595;-45
2021/08/20 09:59:29;;;;;;;2.67;2.38;;;30.10;45.70;;;;;;4943460;28;20660;-45
2021/08/20 10:01:57;;;;;;;2.17;1.98;;;30.30;46.00;;;;;;4973175;28;20215;-44
2021/08/20 10:04:26;;;;;;;2.60;2.40;;;30.50;44.60;;;;;;4951250;28;20226;-44
2021/08/20 10:06:55;;;;;;;3.17;2.38;;;30.60;44.70;;;;;;4942805;28;20665;-45
2021/08/20 10:09:23;;;;;;;2.30;2.10;;;30.70;44.60;;;;;;4946173;28;20212;-44
2021/08/20 10:11:52;;;;;;;2.20;2.00;;;30.60;44.80;;;;;;4975737;28;20651;-44
2021/08/20 10:14:26;;;;;;;4.70;2.47;;;30.70;44.80;;;;;;4943580;28;20645;-45
2021/08/20 10:16:53;;;;;;;2.28;2.08;;;30.90;44.80;;;;;;4944939;28;20218;-45
2021/08/20 10:19:21;;;;;;;3.47;2.67;;;31.10;44.10;;;;;;4955971;28;20238;-45
2021/08/20 10:21:50;;;;;;;2.70;2.50;;;31.10;43.80;;;;;;4946822;28;20206;-45
2021/08/20 10:24:17;;;;;;;2.40;2.20;;;31.10;43.50;;;;;;4945881;28;20321;-45
2021/08/20 10:26:52;;;;;;;3.10;2.80;;;31.00;43.80;;;;;;4941120;28;20230;-45
2021/08/20 10:29:27;;;;;;;2.40;2.20;;;31.00;43.80;;;;;;4949687;28;20314;-45
2021/08/20 10:31:56;;;;;;;3.22;2.42;;;31.00;44.00;;;;;;4940298;28;20203;-45
2021/08/20 10:34:29;;;;;;;2.85;1.70;;;30.70;44.40;;;;;;4951769;28;20211;-45
2021/08/20 10:37:18;;;;;;;2.33;2.13;;;30.50;45.00;;;;;;4945076;28;20601;-45
2021/08/20 10:39:52;;;;;;;4.85;2.70;;;30.00;45.40;;;;;;4955313;28;20221;-45
2021/08/20 10:42:43;;;;;;;3.45;2.90;;;29.60;45.80;;;;;;5040271;28;21394;-45
2021/08/20 10:45:12;;;;;;;5.20;2.60;;;29.30;46.50;;;;;;4949249;28;20227;-44
2021/08/20 10:47:45;;;;;;;2.63;2.08;;;29.00;46.90;;;;;;4951455;28;20214;-45
2021/08/20 10:50:14;;;;;;;2.40;1.95;;;29.00;46.70;;;;;;4954885;28;20199;-45
2021/08/20 10:52:44;;;;;;;3.17;2.10;;;28.80;47.10;;;;;;4978766;28;20246;-44
2021/08/20 10:55:12;;;;;;;2.43;2.23;;;29.00;47.10;;;;;;4943268;28;20219;-45
2021/08/20 10:57:39;;;;;;;2.90;2.40;;;29.10;46.10;;;;;;4944108;28;20212;-44
2021/08/20 11:00:07;;;;;;;2.30;2.10;;;29.10;46.50;;;;;;4947507;28;20203;-45
2021/08/20 11:02:55;;;;;;;2.30;2.03;;;29.10;46.00;;;;;;4942753;28;20207;-45
2021/08/20 11:05:35;;;;;;;4.13;2.53;;;28.90;46.90;;;;;;4947437;28;20321;-45
2021/08/20 11:08:02;;;;;;;2.20;1.97;;;28.60;47.40;;;;;;4943219;28;20203;-45
2021/08/20 11:10:29;;;;;;;2.33;2.10;;;28.40;47.10;;;;;;4966037;28;20203;-45
2021/08/20 11:12:57;;;;;;;2.17;1.97;;;28.20;47.40;;;;;;4967332;28;20211;-45
2021/08/20 11:15:25;;;;;;;2.00;1.83;;;27.90;48.30;;;;;;4946255;28;20215;-45
2021/08/20 11:17:58;;;;;;;2.90;2.20;;;27.70;49.30;;;;;;4944459;28;20471;-45
2021/08/20 11:20:28;;;;;;;2.47;2.27;;;27.50;50.50;;;;;;4940473;28;20219;-46
2021/08/20 11:23:13;;;;;;;3.83;2.37;;;27.30;51.30;;;;;;4956867;28;20463;-46
2021/08/20 11:25:46;;;;;;;2.40;2.20;;;27.00;51.00;;;;;;4945521;28;20728;-46
2021/08/20 11:28:31;;;;;;;4.37;2.33;;;26.80;51.20;;;;;;4946859;28;20469;-47
2021/08/20 11:31:09;;;;;;;4.00;2.47;;;26.50;51.10;;;;;;4947556;28;20434;-46
2021/08/20 11:33:47;;;;;;;2.47;1.93;;;26.30;51.60;;;;;;4950138;28;20980;-46
2021/08/20 11:36:21;;;;;;;1.77;1.67;;;26.10;51.70;;;;;;4939788;28;20548;-46
2021/08/20 11:38:51;;;;;;;3.03;1.97;;;26.00;51.60;;;;;;4942571;28;20446;-45
2021/08/20 11:41:30;;;;;;;2.60;2.17;;;25.90;52.10;;;;;;4948974;28;20538;-45
2021/08/20 11:44:02;;;;;;;1.80;1.70;;;25.80;52.40;;;;;;4945653;28;20520;-45
2021/08/20 11:46:40;;;;;;;2.40;1.80;;;25.80;52.60;;;;;;4954758;28;20865;-45
2021/08/20 11:49:08;;;;;;;1.90;1.50;;;25.80;52.00;;;;;;4941557;28;20473;-45
2021/08/20 11:51:42;;;;;;;3.70;1.70;;;25.70;51.80;;;;;;4948617;28;20462;-45
2021/08/20 11:54:15;;;;;;;2.13;2.03;;;25.70;52.50;;;;;;4940331;28;20455;-45
2021/08/20 11:56:52;;;;;;;1.50;1.40;;;25.60;52.60;;;;;;4942255;28;20445;-45
2021/08/20 11:59:19;;;;;;;2.90;1.80;;;25.50;53.00;;;;;;4948686;28;20956;-45
2021/08/20 12:01:46;;;;;;;2.17;1.97;;;25.30;53.30;;;;;;4939109;28;20482;-45
2021/08/20 12:04:32;;;;;;;2.20;1.73;;;25.20;53.30;;;;;;4944961;28;20497;-45
2021/08/20 12:06:59;;;;;;;2.10;1.90;;;25.10;54.00;;;;;;4969116;28;20512;-45
2021/08/20 12:09:26;;;;;;;2.40;1.63;;;24.90;54.20;;;;;;4939939;28;20716;-46
2021/08/20 12:11:56;;;;;;;2.13;1.70;;;24.80;54.50;;;;;;4946068;28;20514;-45
2021/08/20 12:14:24;;;;;;;1.30;1.20;;;24.80;54.80;;;;;;4945946;28;20481;-45
2021/08/20 12:16:53;;;;;;;2.87;1.67;;;24.80;54.90;;;;;;4952117;28;20471;-45
2021/08/20 12:19:23;;;;;;;2.03;1.93;;;24.90;55.00;;;;;;4961001;28;20459;-45
2021/08/20 12:22:08;;;;;;;2.33;1.67;;;24.90;54.40;;;;;;4940369;28;20474;-45
2021/08/20 12:24:38;;;;;;;1.80;1.70;;;24.90;54.30;;;;;;5037541;28;20491;-45
2021/08/20 12:27:09;;;;;;;2.13;2.03;;;25.00;54.90;;;;;;4942215;28;20995;-45
2021/08/20 12:29:39;;;;;;;2.33;1.63;;;25.00;54.90;;;;;;5039527;28;20448;-45
2021/08/20 12:32:06;;;;;;;1.77;1.50;;;25.10;55.30;;;;;;4945358;28;20462;-45
2021/08/20 12:34:37;;;;;;;1.90;1.40;;;25.20;55.00;;;;;;4957296;28;20455;-45
2021/08/20 12:37:05;;;;;;;3.20;1.80;;;25.20;55.10;;;;;;4943967;28;20443;-45
2021/08/20 12:39:40;;;;;;;2.33;1.63;;;25.30;54.90;;;;;;4950011;28;20454;-45
2021/08/20 12:42:24;;;;;;;2.10;1.90;;;25.30;54.90;;;;;;4947403;28;21015;-46
2021/08/20 12:45:09;;;;;;;1.80;1.50;;;25.40;54.60;;;;;;4956959;28;20497;-46
2021/08/20 12:47:39;;;;;;;2.50;2.00;;;25.40;54.40;;;;;;4947781;28;20515;-45
2021/08/20 12:50:15;;;;;;;3.00;1.80;;;25.50;53.60;;;;;;4964984;28;20797;-45
2021/08/20 12:52:45;;;;;;;2.10;1.57;;;25.60;53.80;;;;;;5039332;28;20450;-45
2021/08/20 12:55:36;;;;;;;2.90;1.87;;;25.60;52.70;;;;;;4948605;28;20450;-45
2021/08/20 12:58:03;;;;;;;2.27;1.60;;;25.60;53.10;;;;;;4957651;28;20454;-45